createdAt,value
2023-12-09T00:01:21.576Z,1.01
2023-12-09T00:03:49.909Z,1.07
2023-12-09T00:06:18.200Z,1.06
2023-12-09T00:08:46.490Z,1.06
2023-12-09T00:11:14.647Z,1.02
2023-12-09T00:13:44.104Z,1.05
2023-12-09T00:16:12.334Z,0.82
2023-12-09T00:18:40.573Z,1.02
2023-12-09T00:21:09.268Z,1.02
2023-12-09T00:23:47.085Z,1.00
2023-12-09T00:26:16.516Z,0.92
2023-12-09T00:28:45.988Z,1.01
2023-12-09T00:31:14.200Z,1.02
2023-12-09T00:33:42.843Z,1.02
2023-12-09T00:36:11.455Z,1.00
2023-12-09T00:38:41.169Z,1.01
2023-12-09T00:41:09.314Z,1.01
2023-12-09T00:43:37.367Z,1.02
2023-12-09T00:46:07.344Z,0.96
2023-12-09T00:48:35.720Z,1.03
2023-12-09T00:51:04.088Z,0.99
2023-12-09T00:53:32.180Z,1.02
2023-12-09T00:56:00.230Z,1.01
2023-12-09T00:58:28.513Z,0.98
2023-12-09T01:00:56.615Z,1.01
2023-12-09T01:03:26.164Z,1.01
2023-12-09T01:05:54.303Z,1.04
2023-12-09T01:08:22.389Z,1.05
2023-12-09T01:10:50.462Z,1.06
2023-12-09T01:13:18.545Z,1.05
2023-12-09T01:15:46.740Z,0.99
2023-12-09T01:18:15.058Z,1.01
2023-12-09T01:20:44.670Z,1.05
2023-12-09T01:23:14.312Z,1.05
2023-12-09T01:25:42.383Z,1.04
2023-12-09T01:28:10.437Z,1.06
2023-12-09T01:30:38.704Z,1.03
2023-12-09T01:33:07.054Z,1.06
2023-12-09T01:35:35.234Z,1.04
2023-12-09T01:38:04.790Z,1.05
2023-12-09T01:40:32.933Z,0.99
2023-12-09T01:43:01.008Z,1.03
2023-12-09T01:45:29.212Z,1.05
2023-12-09T01:47:57.379Z,0.97
2023-12-09T01:50:25.796Z,1.02
2023-12-09T01:52:54.295Z,1.04
2023-12-09T01:55:24.183Z,1.06
2023-12-09T01:57:53.587Z,1.05
2023-12-09T02:00:22.860Z,0.96
2023-12-09T02:02:51.260Z,1.08
2023-12-09T02:05:19.491Z,1.08
2023-12-09T02:07:47.556Z,1.07
2023-12-09T02:10:15.681Z,1.08
2023-12-09T02:12:50.235Z,1.09
2023-12-09T02:15:24.314Z,1.08
2023-12-09T02:17:56.547Z,0.90
2023-12-09T02:20:25.169Z,1.09
2023-12-09T02:23:06.307Z,1.10
2023-12-09T02:25:34.611Z,1.10
2023-12-09T02:28:06.540Z,1.11
2023-12-09T02:30:45.833Z,1.05
2023-12-09T02:33:16.854Z,1.04
2023-12-09T02:35:47.739Z,1.14
2023-12-09T02:38:18.460Z,1.13
2023-12-09T02:40:47.463Z,1.07
2023-12-09T02:43:16.388Z,1.16
2023-12-09T02:45:46.805Z,1.06
2023-12-09T02:48:15.142Z,1.16
2023-12-09T02:50:43.386Z,1.16
2023-12-09T02:53:11.455Z,1.18
2023-12-09T02:55:40.900Z,1.10
2023-12-09T02:58:08.962Z,1.14
2023-12-09T03:00:37.119Z,1.17
2023-12-09T03:03:05.529Z,1.16
2023-12-09T03:05:33.729Z,1.17
2023-12-09T03:08:01.221Z,0.87
2023-12-09T03:10:29.266Z,1.05
2023-12-09T03:12:58.732Z,0.94
2023-12-09T03:15:26.852Z,1.01
2023-12-09T03:17:55.254Z,0.99
2023-12-09T03:20:23.434Z,1.01
2023-12-09T03:22:51.530Z,1.00
2023-12-09T03:25:19.602Z,1.00
2023-12-09T03:27:47.729Z,1.01
2023-12-09T03:30:17.375Z,1.02
2023-12-09T03:32:45.482Z,1.04
2023-12-09T03:35:13.666Z,1.06
2023-12-09T03:37:41.740Z,1.07
2023-12-09T03:40:12.767Z,1.04
2023-12-09T03:42:40.919Z,1.07
2023-12-09T03:45:09.753Z,1.05
2023-12-09T03:47:39.292Z,1.07
2023-12-09T03:50:08.316Z,1.08
2023-12-09T03:52:36.373Z,1.09
2023-12-09T03:55:05.213Z,1.12
2023-12-09T03:57:33.520Z,1.04
2023-12-09T04:00:01.692Z,1.14
2023-12-09T04:02:30.079Z,1.14
2023-12-09T04:05:00.269Z,1.16
2023-12-09T04:07:28.635Z,1.12
2023-12-09T04:09:56.699Z,1.13
2023-12-09T04:12:25.067Z,1.14
2023-12-09T04:14:53.323Z,1.04
2023-12-09T04:17:22.983Z,1.12
2023-12-09T04:19:53.071Z,1.05
2023-12-09T04:22:22.691Z,1.11
2023-12-09T04:24:50.767Z,1.11
2023-12-09T04:27:19.181Z,1.11
2023-12-09T04:29:47.257Z,0.90
2023-12-09T04:32:15.342Z,1.07
2023-12-09T04:34:44.419Z,1.06
2023-12-09T04:37:12.473Z,1.05
2023-12-09T04:39:41.992Z,0.97
2023-12-09T04:42:10.188Z,1.03
2023-12-09T04:44:38.273Z,1.04
2023-12-09T04:47:08.187Z,1.03
2023-12-09T04:49:36.560Z,1.03
2023-12-09T04:52:05.392Z,0.96
2023-12-09T04:54:33.547Z,1.01
2023-12-09T04:57:03.327Z,1.03
2023-12-09T04:59:31.434Z,1.03
2023-12-09T05:01:59.533Z,1.04
2023-12-09T05:04:27.723Z,1.03
2023-12-09T05:06:55.833Z,1.03
2023-12-09T05:09:24.710Z,1.02
2023-12-09T05:11:52.883Z,1.04
2023-12-09T05:14:22.851Z,1.02
2023-12-09T05:16:50.907Z,1.06
2023-12-09T05:19:19.304Z,1.06
2023-12-09T05:21:48.041Z,1.07
2023-12-09T05:24:16.262Z,1.08
2023-12-09T05:26:44.392Z,1.02
2023-12-09T05:29:12.491Z,1.05
2023-12-09T05:31:42.831Z,0.93
2023-12-09T05:34:11.127Z,1.06
2023-12-09T05:36:40.231Z,1.04
2023-12-09T05:39:08.581Z,1.00
2023-12-09T05:41:36.636Z,1.03
2023-12-09T05:44:04.760Z,1.02
2023-12-09T05:46:32.875Z,0.44
2023-12-09T05:49:02.697Z,1.02
2023-12-09T05:51:30.914Z,1.03
2023-12-09T05:53:59.060Z,1.03
2023-12-09T05:56:27.234Z,1.02
2023-12-09T05:58:55.500Z,1.02
2023-12-09T06:01:23.656Z,1.01
2023-12-09T06:03:51.757Z,1.00
2023-12-09T06:06:21.320Z,1.01
2023-12-09T06:08:50.425Z,0.94
2023-12-09T06:11:18.580Z,0.94
2023-12-09T06:13:47.348Z,0.93
2023-12-09T06:16:19.602Z,0.92
2023-12-09T06:18:48.336Z,0.92
2023-12-09T06:21:23.113Z,0.91
2023-12-09T06:23:51.920Z,0.90
2023-12-09T06:26:20.502Z,0.77
2023-12-09T06:28:48.652Z,0.90
2023-12-09T06:31:16.734Z,0.91
2023-12-09T06:33:45.015Z,0.93
2023-12-09T06:36:13.280Z,0.90
2023-12-09T06:38:43.069Z,0.82
2023-12-09T06:41:11.216Z,0.87
2023-12-09T06:43:40.833Z,0.72
2023-12-09T06:46:08.997Z,0.84
2023-12-09T06:48:39.569Z,0.83
2023-12-09T06:51:09.690Z,0.84
2023-12-09T06:53:40.787Z,0.83
2023-12-09T06:56:20.062Z,0.81
2023-12-09T06:58:48.164Z,0.79
2023-12-09T07:01:23.109Z,0.78
2023-12-09T07:03:51.808Z,0.76
2023-12-09T07:06:25.965Z,0.65
2023-12-09T07:08:55.105Z,0.70
2023-12-09T07:11:25.254Z,0.65
2023-12-09T07:13:53.458Z,0.72
2023-12-09T07:16:21.653Z,0.69
2023-12-09T07:18:52.450Z,0.71
2023-12-09T07:21:21.056Z,0.77
2023-12-09T07:23:49.269Z,0.79
2023-12-09T07:26:17.559Z,0.75
2023-12-09T07:28:47.250Z,0.71
2023-12-09T07:31:15.473Z,0.76
2023-12-09T07:33:43.752Z,0.73
2023-12-09T07:36:12.146Z,0.74
2023-12-09T07:38:40.325Z,0.75
2023-12-09T07:41:08.499Z,0.69
2023-12-09T07:43:39.476Z,0.74
2023-12-09T07:46:10.494Z,0.73
2023-12-09T07:48:38.765Z,0.71
2023-12-09T07:51:07.400Z,0.74
2023-12-09T07:53:35.652Z,0.72
2023-12-09T07:56:03.731Z,0.69
2023-12-09T07:58:31.780Z,0.47
2023-12-09T08:01:01.572Z,0.62
2023-12-09T08:03:33.920Z,0.48
2023-12-09T08:06:03.909Z,0.65
2023-12-09T08:08:32.112Z,0.67
2023-12-09T08:11:02.462Z,0.64
2023-12-09T08:13:30.549Z,0.66
2023-12-09T08:15:58.569Z,0.64
2023-12-09T08:18:27.375Z,0.65
2023-12-09T08:20:57.686Z,0.72
2023-12-09T08:23:25.820Z,0.73
2023-12-09T08:25:53.979Z,0.74
2023-12-09T08:28:22.076Z,0.68
2023-12-09T08:30:50.136Z,0.71
2023-12-09T08:33:18.317Z,0.70
2023-12-09T08:35:46.527Z,0.62
2023-12-09T08:38:16.242Z,0.68
2023-12-09T08:40:44.367Z,0.57
2023-12-09T08:43:12.468Z,0.71
2023-12-09T08:45:40.608Z,0.71
2023-12-09T08:48:09.516Z,0.73
2023-12-09T08:50:37.741Z,0.74
2023-12-09T08:53:05.797Z,0.76
2023-12-09T08:55:35.724Z,0.77
2023-12-09T08:58:04.404Z,0.73
2023-12-09T09:00:32.514Z,0.77
2023-12-09T09:03:00.670Z,0.77
2023-12-09T09:05:28.819Z,0.82
2023-12-09T09:07:57.145Z,0.82
2023-12-09T09:10:25.234Z,0.83
2023-12-09T09:12:54.769Z,0.72
2023-12-09T09:15:23.196Z,0.77
2023-12-09T09:17:52.485Z,0.79
2023-12-09T09:20:20.702Z,0.81
2023-12-09T09:22:49.087Z,0.82
2023-12-09T09:25:17.616Z,0.82
2023-12-09T09:27:45.865Z,0.82
2023-12-09T09:30:16.015Z,0.74
2023-12-09T09:32:44.192Z,0.68
2023-12-09T09:35:12.605Z,0.81
2023-12-09T09:37:40.767Z,0.68
2023-12-09T09:40:12.888Z,0.83
2023-12-09T09:42:45.861Z,0.79
2023-12-09T09:45:27.209Z,0.78
2023-12-09T09:47:58.741Z,0.81
2023-12-09T09:50:28.453Z,0.83
2023-12-09T09:52:56.842Z,0.81
2023-12-09T09:55:29.465Z,0.80
2023-12-09T09:57:57.954Z,0.72
2023-12-09T10:00:29.934Z,0.69
2023-12-09T10:03:00.232Z,0.80
2023-12-09T10:05:29.761Z,0.72
2023-12-09T10:07:58.368Z,0.75
2023-12-09T10:10:26.601Z,0.84
2023-12-09T10:12:55.091Z,0.84
2023-12-09T10:15:23.275Z,0.80
2023-12-09T10:17:53.278Z,0.84
2023-12-09T10:20:21.402Z,0.82
2023-12-09T10:22:49.822Z,0.82
2023-12-09T10:25:23.460Z,0.83
2023-12-09T10:27:51.668Z,0.85
2023-12-09T10:30:20.562Z,0.86
2023-12-09T10:32:49.558Z,0.91
2023-12-09T10:35:20.625Z,0.95
2023-12-09T10:37:50.908Z,0.93
2023-12-09T10:40:23.698Z,0.90
2023-12-09T10:42:53.528Z,0.94
2023-12-09T10:45:21.848Z,0.95
2023-12-09T10:47:50.009Z,0.98
2023-12-09T10:50:19.621Z,0.79
2023-12-09T10:52:47.716Z,0.98
2023-12-09T10:55:16.747Z,0.63
2023-12-09T10:57:45.878Z,0.97
2023-12-09T11:00:16.530Z,0.77
2023-12-09T11:02:47.711Z,0.95
2023-12-09T11:05:16.813Z,1.03
2023-12-09T11:07:48.273Z,1.03
2023-12-09T11:10:16.918Z,1.00
2023-12-09T11:12:46.222Z,0.96
2023-12-09T11:15:24.491Z,0.92
2023-12-09T11:17:55.147Z,0.91
2023-12-09T11:20:24.833Z,0.90
2023-12-09T11:22:55.076Z,0.85
2023-12-09T11:25:27.026Z,0.93
2023-12-09T11:27:56.160Z,0.96
2023-12-09T11:30:32.770Z,0.96
2023-12-09T11:33:01.376Z,0.93
2023-12-09T11:35:30.288Z,0.87
2023-12-09T11:38:01.448Z,0.89
2023-12-09T11:40:31.324Z,0.88
2023-12-09T11:42:59.801Z,0.81
2023-12-09T11:45:28.507Z,0.80
2023-12-09T11:47:58.561Z,0.69
2023-12-09T11:50:30.438Z,0.70
2023-12-09T11:53:01.105Z,0.84
2023-12-09T11:55:30.556Z,0.56
2023-12-09T11:57:58.928Z,0.23
2023-12-09T12:00:27.482Z,0.85
2023-12-09T12:02:57.643Z,-1.31
2023-12-09T12:05:28.624Z,0.84
2023-12-09T12:07:57.211Z,0.63
2023-12-09T12:10:27.042Z,-1.10
2023-12-09T12:12:55.769Z,-0.27
2023-12-09T12:15:24.643Z,0.64
2023-12-09T12:17:53.324Z,0.87
2023-12-09T12:20:22.365Z,0.90
2023-12-09T12:22:50.790Z,0.00
2023-12-09T12:25:19.036Z,0.89
2023-12-09T12:27:48.579Z,0.86
2023-12-09T12:30:16.978Z,0.82
2023-12-09T12:32:45.336Z,0.84
2023-12-09T12:35:13.778Z,0.83
2023-12-09T12:37:42.855Z,0.85
2023-12-09T12:40:12.377Z,0.81
2023-12-09T12:42:40.781Z,0.84
2023-12-09T12:45:20.357Z,0.85
2023-12-09T12:47:49.594Z,0.88
2023-12-09T12:50:18.440Z,0.80
2023-12-09T12:52:46.975Z,0.84
2023-12-09T12:55:15.243Z,0.83
2023-12-09T12:57:44.970Z,0.81
2023-12-09T13:00:15.615Z,0.83
2023-12-09T13:02:45.388Z,0.79
2023-12-09T13:05:13.739Z,0.76
2023-12-09T13:07:41.836Z,0.71
2023-12-09T13:10:10.130Z,0.69
2023-12-09T13:12:38.394Z,0.75
2023-12-09T13:15:07.806Z,0.68
2023-12-09T13:17:36.316Z,0.71
2023-12-09T13:20:08.098Z,0.74
2023-12-09T13:22:36.967Z,0.75
2023-12-09T13:25:06.748Z,0.71
2023-12-09T13:27:35.403Z,0.78
2023-12-09T13:30:06.034Z,0.77
2023-12-09T13:32:34.222Z,0.75
2023-12-09T13:35:02.431Z,0.75
2023-12-09T13:37:32.178Z,0.71
2023-12-09T13:40:00.589Z,0.69
2023-12-09T13:42:29.469Z,0.67
2023-12-09T13:44:57.779Z,0.63
2023-12-09T13:47:26.269Z,0.07
2023-12-09T13:49:54.459Z,0.58
2023-12-09T13:52:23.915Z,0.58
2023-12-09T13:54:53.381Z,0.59
2023-12-09T13:57:21.480Z,0.57
2023-12-09T13:59:49.584Z,0.55
2023-12-09T14:02:17.687Z,0.54
2023-12-09T14:04:46.050Z,0.53
2023-12-09T14:07:15.041Z,0.47
2023-12-09T14:09:43.328Z,0.29
2023-12-09T14:12:13.149Z,0.37
2023-12-09T14:14:41.310Z,0.04
2023-12-09T14:17:11.234Z,0.32
2023-12-09T14:19:39.911Z,0.32
2023-12-09T14:22:11.134Z,0.36
2023-12-09T14:24:39.378Z,0.32
2023-12-09T14:27:07.679Z,0.32
2023-12-09T14:29:37.161Z,0.30
2023-12-09T14:32:05.753Z,0.27
2023-12-09T14:34:34.513Z,0.18
2023-12-09T14:37:04.427Z,0.19
2023-12-09T14:39:32.765Z,0.17
2023-12-09T14:42:01.078Z,0.17
2023-12-09T14:44:29.363Z,0.14
2023-12-09T14:46:58.818Z,0.09
2023-12-09T14:49:27.172Z,0.08
2023-12-09T14:51:55.561Z,0.14
2023-12-09T14:54:23.750Z,0.10
2023-12-09T14:56:53.072Z,0.16
2023-12-09T14:59:21.519Z,0.15
2023-12-09T15:01:49.771Z,0.17
2023-12-09T15:04:19.384Z,0.18
2023-12-09T15:06:49.941Z,0.20
2023-12-09T15:09:18.931Z,0.22
2023-12-09T15:11:48.658Z,0.24
2023-12-09T15:14:16.850Z,0.23
2023-12-09T15:16:45.054Z,0.17
2023-12-09T15:19:13.397Z,0.20
2023-12-09T15:21:43.314Z,0.27
2023-12-09T15:24:11.989Z,0.27
2023-12-09T15:26:40.656Z,0.29
2023-12-09T15:29:08.837Z,0.31
2023-12-09T15:31:36.960Z,0.31
2023-12-09T15:34:05.806Z,0.29
2023-12-09T15:36:34.494Z,0.28
2023-12-09T15:39:04.867Z,0.30
2023-12-09T15:41:34.356Z,0.32
2023-12-09T15:44:02.493Z,0.35
2023-12-09T15:46:31.047Z,0.36
2023-12-09T15:49:01.349Z,0.34
2023-12-09T15:51:29.648Z,0.37
2023-12-09T15:53:57.752Z,0.39
2023-12-09T15:56:27.257Z,0.40
2023-12-09T15:58:55.580Z,0.39
2023-12-09T16:01:23.917Z,0.41
2023-12-09T16:03:53.486Z,0.42
2023-12-09T16:06:21.851Z,0.42
2023-12-09T16:08:50.083Z,0.42
2023-12-09T16:11:18.166Z,0.41
2023-12-09T16:13:47.755Z,0.39
2023-12-09T16:16:16.239Z,0.32
2023-12-09T16:18:44.587Z,0.31
2023-12-09T16:21:12.804Z,0.36
2023-12-09T16:23:41.166Z,0.33
2023-12-09T16:26:12.147Z,0.28
2023-12-09T16:28:41.077Z,0.28
2023-12-09T16:31:15.747Z,0.23
2023-12-09T16:33:44.427Z,0.19
2023-12-09T16:36:13.669Z,0.25
2023-12-09T16:38:41.753Z,0.19
2023-12-09T16:41:09.818Z,0.18
2023-12-09T16:43:38.099Z,0.19
2023-12-09T16:46:06.709Z,0.18
2023-12-09T16:48:36.420Z,0.18
2023-12-09T16:51:04.822Z,0.18
2023-12-09T16:53:32.893Z,0.16
2023-12-09T16:56:01.655Z,0.03
2023-12-09T16:58:29.808Z,0.03
2023-12-09T17:00:58.075Z,0.18
2023-12-09T17:03:26.499Z,0.17
2023-12-09T17:05:56.020Z,0.17
2023-12-09T17:08:24.184Z,0.12
2023-12-09T17:10:52.338Z,0.07
2023-12-09T17:13:21.317Z,0.13
2023-12-09T17:15:49.808Z,0.12
2023-12-09T17:18:18.227Z,0.07
2023-12-09T17:20:47.599Z,0.04
2023-12-09T17:23:17.491Z,0.00
2023-12-09T17:25:45.712Z,-0.02
2023-12-09T17:28:13.935Z,-0.01
2023-12-09T17:30:42.044Z,-0.02
2023-12-09T17:33:10.237Z,-0.02
2023-12-09T17:35:38.449Z,-0.16
2023-12-09T17:38:06.591Z,-0.06
2023-12-09T17:40:36.322Z,-0.04
2023-12-09T17:43:04.429Z,-0.02
2023-12-09T17:45:32.519Z,-0.01
2023-12-09T17:48:00.678Z,0.00
2023-12-09T17:50:28.791Z,-0.03
2023-12-09T17:52:56.878Z,-0.02
2023-12-09T17:55:27.771Z,0.01
2023-12-09T17:57:58.981Z,0.03
2023-12-09T18:00:27.233Z,-0.01
2023-12-09T18:02:55.562Z,-0.25
2023-12-09T18:05:23.880Z,-0.04
2023-12-09T18:07:52.186Z,-0.06
2023-12-09T18:10:20.361Z,0.00
2023-12-09T18:12:48.532Z,0.03
2023-12-09T18:15:18.100Z,0.03
2023-12-09T18:17:46.396Z,-0.08
2023-12-09T18:20:14.632Z,0.07
2023-12-09T18:22:43.373Z,0.09
2023-12-09T18:25:13.475Z,0.04
2023-12-09T18:27:42.298Z,-0.01
2023-12-09T18:30:11.458Z,0.06
2023-12-09T18:32:41.047Z,0.06
2023-12-09T18:35:12.360Z,0.08
2023-12-09T18:37:41.140Z,-0.01
2023-12-09T18:40:11.072Z,0.05
2023-12-09T18:42:39.754Z,-0.03
2023-12-09T18:45:12.264Z,0.03
2023-12-09T18:47:41.774Z,0.04
2023-12-09T18:50:10.602Z,0.06
2023-12-09T18:52:38.739Z,-0.01
2023-12-09T18:55:07.936Z,0.04
2023-12-09T18:57:36.216Z,0.05
2023-12-09T19:00:05.689Z,-0.05
2023-12-09T19:02:34.625Z,0.08
2023-12-09T19:05:04.432Z,0.10
2023-12-09T19:07:32.826Z,0.10
2023-12-09T19:10:04.881Z,0.12
2023-12-09T19:12:34.245Z,-0.03
2023-12-09T19:15:03.696Z,0.04
2023-12-09T19:17:32.433Z,0.10
2023-12-09T19:20:00.722Z,0.17
2023-12-09T19:22:30.488Z,0.18
2023-12-09T19:24:58.698Z,0.21
2023-12-09T19:27:27.256Z,0.21
2023-12-09T19:29:55.747Z,0.17
2023-12-09T19:32:24.052Z,0.22
2023-12-09T19:34:52.843Z,0.19
2023-12-09T19:37:20.993Z,0.17
2023-12-09T19:39:50.546Z,0.19
2023-12-09T19:42:19.481Z,0.17
2023-12-09T19:44:47.654Z,0.15
2023-12-09T19:47:15.727Z,0.19
2023-12-09T19:49:43.943Z,0.18
2023-12-09T19:52:12.183Z,0.18
2023-12-09T19:54:40.279Z,0.13
2023-12-09T19:57:13.068Z,0.13
2023-12-09T19:59:42.319Z,0.14
2023-12-09T20:02:10.379Z,0.13
2023-12-09T20:04:38.586Z,0.11
2023-12-09T20:07:06.777Z,0.12
2023-12-09T20:09:34.936Z,0.13
2023-12-09T20:12:03.018Z,0.13
2023-12-09T20:14:33.430Z,0.07
2023-12-09T20:17:01.535Z,0.11
2023-12-09T20:19:29.712Z,0.07
2023-12-09T20:21:58.052Z,0.07
2023-12-09T20:24:26.173Z,0.08
2023-12-09T20:26:54.390Z,0.03
2023-12-09T20:29:23.092Z,-0.05
2023-12-09T20:31:52.542Z,0.02
2023-12-09T20:34:20.799Z,-0.15
2023-12-09T20:36:50.198Z,0.02
2023-12-09T20:39:18.322Z,-0.03
2023-12-09T20:41:46.424Z,-0.08
2023-12-09T20:44:14.504Z,-0.07
2023-12-09T20:46:42.704Z,0.00
2023-12-09T20:49:13.689Z,-0.02
2023-12-09T20:51:45.645Z,-0.01
2023-12-09T20:54:14.171Z,-0.05
2023-12-09T20:56:42.390Z,-0.49
2023-12-09T20:59:10.613Z,-0.06
2023-12-09T21:01:44.853Z,-0.05
2023-12-09T21:04:14.553Z,0.02
2023-12-09T21:06:42.788Z,0.00
2023-12-09T21:09:11.152Z,0.00
2023-12-09T21:11:39.362Z,-0.03
2023-12-09T21:14:08.816Z,-0.04
2023-12-09T21:16:37.688Z,-0.04
2023-12-09T21:19:05.983Z,-0.05
2023-12-09T21:21:35.569Z,-0.06
2023-12-09T21:24:03.706Z,-0.06
2023-12-09T21:26:31.963Z,-0.05
2023-12-09T21:29:00.051Z,-0.09
2023-12-09T21:31:28.564Z,-0.02
2023-12-09T21:33:56.689Z,-0.02
2023-12-09T21:36:25.580Z,-0.01
2023-12-09T21:38:55.130Z,-0.08
2023-12-09T21:41:24.294Z,-0.23
2023-12-09T21:43:52.797Z,0.00
2023-12-09T21:46:22.887Z,-0.03
2023-12-09T21:48:52.578Z,-0.03
2023-12-09T21:51:21.781Z,-0.03
2023-12-09T21:53:50.327Z,-0.01
2023-12-09T21:56:23.379Z,-0.08
2023-12-09T21:58:52.181Z,-0.02
2023-12-09T22:01:21.097Z,-0.03
2023-12-09T22:03:49.727Z,-0.02
2023-12-09T22:06:18.174Z,-0.01
2023-12-09T22:08:46.726Z,-0.02
2023-12-09T22:11:14.832Z,-0.05
2023-12-09T22:13:44.678Z,0.00
2023-12-09T22:16:13.500Z,0.00
2023-12-09T22:18:41.707Z,-0.25
2023-12-09T22:21:11.226Z,-0.06
2023-12-09T22:23:39.458Z,-1.19
2023-12-09T22:26:07.824Z,-0.08
2023-12-09T22:28:39.978Z,-0.03
2023-12-09T22:31:10.323Z,-0.02
2023-12-09T22:33:41.122Z,-0.11
2023-12-09T22:36:11.031Z,-0.07
2023-12-09T22:38:39.115Z,-0.06
2023-12-09T22:41:07.504Z,-0.05
2023-12-09T22:43:35.859Z,-0.17
2023-12-09T22:46:04.467Z,-0.26
2023-12-09T22:48:34.072Z,-0.03
2023-12-09T22:51:02.270Z,-0.04
2023-12-09T22:53:30.390Z,-0.04
2023-12-09T22:56:12.414Z,-0.05
2023-12-09T22:58:42.531Z,-0.05
2023-12-09T23:01:11.342Z,-0.06
2023-12-09T23:03:40.980Z,-0.03
2023-12-09T23:06:09.916Z,-0.03
2023-12-09T23:08:40.484Z,-0.04
2023-12-09T23:11:08.884Z,-0.01
2023-12-09T23:13:37.011Z,-0.64
2023-12-09T23:16:05.836Z,-0.09
2023-12-09T23:18:34.369Z,0.01
2023-12-09T23:21:05.244Z,0.00
2023-12-09T23:23:33.437Z,-0.05
2023-12-09T23:26:01.537Z,0.00
2023-12-09T23:28:29.790Z,-0.24
2023-12-09T23:30:57.950Z,0.04
2023-12-09T23:33:26.404Z,-0.06
2023-12-09T23:35:54.656Z,-0.01
2023-12-09T23:38:24.124Z,0.08
2023-12-09T23:40:52.833Z,0.10
2023-12-09T23:43:20.960Z,0.12
2023-12-09T23:45:49.192Z,0.11
2023-12-09T23:48:18.990Z,0.02
2023-12-09T23:50:47.413Z,0.12
2023-12-09T23:53:15.897Z,0.13
2023-12-09T23:55:45.461Z,0.12
2023-12-09T23:58:15.730Z,0.09
